createdAt,value
2018-02-24T00:00:32.434Z,71.14
2018-02-24T00:01:32.471Z,70.01
2018-02-24T00:02:32.410Z,69.53
2018-02-24T00:03:32.668Z,69.82
2018-02-24T00:04:32.395Z,70.39
2018-02-24T00:05:32.628Z,70.95
2018-02-24T00:06:32.376Z,70.48
2018-02-24T00:07:32.617Z,70.76
2018-02-24T00:08:32.606Z,70.95
2018-02-24T00:09:32.586Z,70.57
2018-02-24T00:10:32.574Z,71.04
2018-02-24T00:11:32.577Z,70.86
2018-02-24T00:12:32.548Z,71.04
2018-02-24T00:13:32.539Z,70.67
2018-02-24T00:14:32.646Z,71.23
2018-02-24T00:15:32.271Z,72.28
2018-02-24T00:16:32.531Z,71.9
2018-02-24T00:17:32.515Z,70.95
2018-02-24T00:18:32.480Z,70.48
2018-02-24T00:19:32.464Z,70.95
2018-02-24T00:20:32.465Z,70.95
2018-02-24T00:21:32.209Z,70.67
2018-02-24T00:22:32.528Z,70.67
2018-02-24T00:23:32.427Z,70.95
2018-02-24T00:24:32.406Z,71.52
2018-02-24T00:25:32.399Z,71.61
2018-02-24T00:26:32.381Z,72.47
2018-02-24T00:27:32.371Z,71.33
2018-02-24T00:28:32.135Z,71.61
2018-02-24T00:29:32.110Z,72.94
2018-02-24T00:30:32.348Z,73.69
2018-02-24T00:31:32.323Z,72.75
2018-02-24T00:32:32.312Z,71.52
2018-02-24T00:33:32.304Z,71.33
2018-02-24T00:34:32.304Z,72.75
2018-02-24T00:35:32.084Z,73.13
2018-02-24T00:36:32.011Z,71.9
2018-02-24T00:37:32.254Z,71.14
2018-02-24T00:38:31.987Z,71.9
2018-02-24T00:39:32.230Z,71.77
2018-02-24T00:40:32.228Z,72.71
2018-02-24T00:41:32.217Z,72.33
2018-02-24T00:42:31.938Z,72.37
2018-02-24T00:43:31.930Z,71.77
2018-02-24T00:44:32.187Z,72.8
2018-02-24T00:45:32.165Z,72.43
2018-02-24T00:46:32.150Z,72.18
2018-02-24T00:47:32.158Z,73.5
2018-02-24T00:48:32.134Z,73.6
2018-02-24T00:49:31.855Z,74.36
2018-02-24T00:50:32.111Z,73.79
2018-02-24T00:51:32.098Z,72.66
2018-02-24T00:52:32.777Z,72.85
2018-02-24T00:53:32.069Z,73.13
2018-02-24T00:54:32.133Z,73.32
2018-02-24T00:55:32.045Z,72.28
2018-02-24T00:56:31.770Z,71.9
2018-02-24T00:57:32.076Z,71.86
2018-02-24T00:58:31.825Z,72.24
2018-02-24T00:59:31.987Z,72.62
2018-02-24T01:00:31.977Z,72.71
2018-02-24T01:01:31.968Z,72.52
2018-02-24T01:02:32.036Z,71.95
2018-02-24T01:03:31.937Z,73.18
2018-02-24T01:04:31.682Z,72.9
2018-02-24T01:05:31.941Z,72.8
2018-02-24T01:06:31.901Z,72.71
2018-02-24T01:07:31.889Z,73.75
2018-02-24T01:08:31.883Z,74.41
2018-02-24T01:09:31.875Z,73.6
2018-02-24T01:10:31.853Z,72.9
2018-02-24T01:11:31.593Z,72.66
2018-02-24T01:12:31.832Z,74.69
2018-02-24T01:13:31.573Z,75.59
2018-02-24T01:14:31.807Z,74.55
2018-02-24T01:15:31.548Z,73.5
2018-02-24T01:16:31.789Z,72.28
2018-02-24T01:17:31.771Z,71.04
2018-02-24T01:18:31.761Z,70.95
2018-02-24T01:19:31.749Z,72.71
2018-02-24T01:20:31.487Z,75.74
2018-02-24T01:21:31.732Z,76.53
2018-02-24T01:22:31.716Z,74.26
2018-02-24T01:23:31.708Z,73.6
2018-02-24T01:24:31.696Z,72.56
2018-02-24T01:25:31.678Z,72.09
2018-02-24T01:26:31.416Z,72.37
2018-02-24T01:27:31.656Z,70.95
2018-02-24T01:28:31.388Z,70.44
2018-02-24T01:29:31.376Z,70.25
2018-02-24T01:30:31.618Z,71.58
2018-02-24T01:31:31.606Z,72.99
2018-02-24T01:32:31.597Z,71.86
2018-02-24T01:33:31.587Z,71.95
2018-02-24T01:34:31.584Z,71.77
2018-02-24T01:35:32.358Z,72.24
2018-02-24T01:36:31.302Z,71.48
2018-02-24T01:37:31.296Z,71.77
2018-02-24T01:38:31.536Z,72.43
2018-02-24T01:39:31.511Z,72.33
2018-02-24T01:40:31.512Z,72.43
2018-02-24T01:41:31.593Z,72.52
2018-02-24T01:42:31.230Z,72.05
2018-02-24T01:43:31.464Z,73.37
2018-02-24T01:44:31.454Z,73.56
2018-02-24T01:45:31.185Z,73.09
2018-02-24T01:46:31.430Z,71.58
2018-02-24T01:47:31.418Z,73.09
2018-02-24T01:48:31.400Z,71.95
2018-02-24T01:49:31.395Z,71.48
2018-02-24T01:50:31.377Z,71.39
2018-02-24T01:51:31.369Z,71.48
2018-02-24T01:52:31.359Z,72.71
2018-02-24T01:53:31.096Z,71.58
2018-02-24T01:54:31.333Z,71.2
2018-02-24T01:55:31.064Z,72.43
2018-02-24T01:56:31.306Z,71.77
2018-02-24T01:57:31.042Z,73.28
2018-02-24T01:58:31.028Z,74.88
2018-02-24T01:59:31.274Z,73.75
2018-02-24T02:00:31.005Z,72.14
2018-02-24T02:01:31.248Z,71.95
2018-02-24T02:02:31.233Z,72.52
2018-02-24T02:03:31.225Z,72.52
2018-02-24T02:04:31.210Z,72.62
2018-02-24T02:05:31.199Z,71.39
2018-02-24T02:06:31.185Z,72.05
2018-02-24T02:07:31.173Z,72.43
2018-02-24T02:08:31.166Z,72.9
2018-02-24T02:09:30.896Z,72.9
2018-02-24T02:10:30.881Z,72.05
2018-02-24T02:11:31.126Z,73.56
2018-02-24T02:12:31.111Z,72.62
2018-02-24T02:13:31.108Z,72.8
2018-02-24T02:14:31.092Z,73.66
2018-02-24T02:15:30.826Z,74.41
2018-02-24T02:16:30.811Z,74.69
2018-02-24T02:17:31.056Z,72.33
2018-02-24T02:18:30.784Z,70.92
2018-02-24T02:19:31.025Z,70.92
2018-02-24T02:20:30.763Z,72.52
2018-02-24T02:21:31.002Z,71.2
2018-02-24T02:22:30.991Z,71.48
2018-02-24T02:23:30.727Z,71.77
2018-02-24T02:24:30.970Z,72.43
2018-02-24T02:25:30.957Z,71.3
2018-02-24T02:26:30.941Z,70.92
2018-02-24T02:27:30.931Z,71.11
2018-02-24T02:28:30.663Z,71.95
2018-02-24T02:29:30.670Z,72.71
2018-02-24T02:30:30.642Z,72.8
2018-02-24T02:31:30.888Z,72.71
2018-02-24T02:32:30.617Z,71.86
2018-02-24T02:33:30.857Z,71.58
2018-02-24T02:34:30.852Z,72.62
2018-02-24T02:35:30.840Z,74.22
2018-02-24T02:36:30.826Z,74.79
2018-02-24T02:37:30.808Z,75.26
2018-02-24T02:38:30.802Z,73.85
2018-02-24T02:39:30.542Z,73.37
2018-02-24T02:40:30.770Z,72.52
2018-02-24T02:41:30.760Z,72.99
2018-02-24T02:42:30.754Z,72.9
2018-02-24T02:43:30.737Z,71.77
2018-02-24T02:44:30.729Z,71.2
2018-02-24T02:45:30.711Z,71.11
2018-02-24T02:46:30.744Z,70.82
2018-02-24T02:47:30.697Z,71.67
2018-02-24T02:48:30.676Z,74.69
2018-02-24T02:49:30.407Z,74.69
2018-02-24T02:50:30.656Z,76.21
2018-02-24T02:51:30.387Z,74.22
2018-02-24T02:52:30.627Z,72.43
2018-02-24T02:53:30.618Z,72.52
2018-02-24T02:54:30.602Z,74.41
2018-02-24T02:55:30.595Z,73.18
2018-02-24T02:56:30.586Z,71.2
2018-02-24T02:57:30.566Z,71.01
2018-02-24T02:58:30.556Z,70.73
2018-02-24T02:59:30.538Z,70.92
2018-02-24T03:00:30.275Z,71.77
2018-02-24T03:01:30.514Z,73.37
2018-02-24T03:02:30.511Z,74.04
2018-02-24T03:03:30.245Z,74.88
2018-02-24T03:04:30.492Z,75.45
2018-02-24T03:05:30.469Z,77.44
2018-02-24T03:06:30.454Z,76.5
2018-02-24T03:07:30.446Z,75.74
2018-02-24T03:08:30.428Z,74.32
2018-02-24T03:09:30.166Z,72.33
2018-02-24T03:10:30.409Z,75.74
2018-02-24T03:11:30.394Z,75.74
2018-02-24T03:12:30.380Z,74.6
2018-02-24T03:13:30.372Z,75.64
2018-02-24T03:14:30.355Z,75.7
2018-02-24T03:15:30.344Z,74
2018-02-24T03:16:30.329Z,71.45
2018-02-24T03:17:30.326Z,71.83
2018-02-24T03:18:30.304Z,72.86
2018-02-24T03:19:30.288Z,73.33
2018-02-24T03:20:30.285Z,72.2
2018-02-24T03:21:30.264Z,74.38
2018-02-24T03:22:30.258Z,78.81
2018-02-24T03:23:30.240Z,76.55
2018-02-24T03:24:30.229Z,74.28
2018-02-24T03:25:30.225Z,76.45
2018-02-24T03:26:29.948Z,75.51
2018-02-24T03:27:30.195Z,74.47
2018-02-24T03:28:30.175Z,76.17
2018-02-24T03:29:30.166Z,76.07
2018-02-24T03:30:30.169Z,75.89
2018-02-24T03:31:29.946Z,76.64
2018-02-24T03:32:29.868Z,75.6
2018-02-24T03:33:30.105Z,74.19
2018-02-24T03:34:30.112Z,74
2018-02-24T03:35:30.093Z,73.52
2018-02-24T03:36:30.069Z,73.33
2018-02-24T03:37:30.058Z,75.6
2018-02-24T03:38:30.040Z,76.64
2018-02-24T03:39:30.034Z,77.21
2018-02-24T03:40:30.016Z,76.83
2018-02-24T03:41:29.748Z,76.36
2018-02-24T03:42:29.989Z,74.76
2018-02-24T03:43:29.977Z,75.7
2018-02-24T03:44:29.706Z,77.59
2018-02-24T03:45:29.954Z,77.69
2018-02-24T03:46:29.934Z,79
2018-02-24T03:47:29.676Z,78.53
2018-02-24T03:48:29.907Z,76.64
2018-02-24T03:49:29.641Z,75.04
2018-02-24T03:50:29.626Z,74.85
2018-02-24T03:51:29.864Z,74.47
2018-02-24T03:52:29.852Z,75.7
2018-02-24T03:53:29.838Z,75.47
2018-02-24T03:54:29.574Z,75.47
2018-02-24T03:55:29.815Z,75.09
2018-02-24T03:56:29.803Z,75
2018-02-24T03:57:29.786Z,77.45
2018-02-24T03:58:29.776Z,78.21
2018-02-24T03:59:29.507Z,78.97
2018-02-24T04:00:29.746Z,79.91
2018-02-24T04:01:29.732Z,78.78
2018-02-24T04:02:29.721Z,78.78
2018-02-24T04:03:29.705Z,77.93
2018-02-24T04:04:29.696Z,77.45
2018-02-24T04:05:29.685Z,75.76
2018-02-24T04:06:29.979Z,76.98
2018-02-24T04:07:29.657Z,76.89
2018-02-24T04:08:29.897Z,78.97
2018-02-24T04:09:29.634Z,77.08
2018-02-24T04:10:29.617Z,74.9
2018-02-24T04:11:29.598Z,74.53
2018-02-24T04:12:29.582Z,74.81
2018-02-24T04:13:29.312Z,74.9
2018-02-24T04:14:29.303Z,75.57
2018-02-24T04:15:29.563Z,76.7
2018-02-24T04:16:29.669Z,77.55
2018-02-24T04:17:29.520Z,77.17
2018-02-24T04:18:29.500Z,77.17
2018-02-24T04:19:29.500Z,77.36
2018-02-24T04:20:29.475Z,77.74
2018-02-24T04:21:29.464Z,77.83
2018-02-24T04:22:29.444Z,78.78
2018-02-24T04:23:29.427Z,80
2018-02-24T04:24:29.165Z,81.61
2018-02-24T04:25:29.411Z,81.61
2018-02-24T04:26:29.146Z,79.16
2018-02-24T04:27:29.375Z,79.91
2018-02-24T04:28:29.361Z,79.44
2018-02-24T04:29:29.348Z,79.35
2018-02-24T04:30:29.332Z,78.4
2018-02-24T04:31:29.321Z,78.12
2018-02-24T04:32:29.307Z,79.44
2018-02-24T04:33:29.295Z,78.02
2018-02-24T04:34:29.025Z,77.93
2018-02-24T04:35:29.012Z,78.4
2018-02-24T04:36:29.249Z,80
2018-02-24T04:37:29.244Z,78.68
2018-02-24T04:38:29.224Z,80.57
2018-02-24T04:39:29.217Z,81.04
2018-02-24T04:40:29.203Z,79.35
2018-02-24T04:41:29.180Z,78.68
2018-02-24T04:42:28.914Z,76.79
2018-02-24T04:43:29.162Z,76.89
2018-02-24T04:44:29.148Z,77.45
2018-02-24T04:45:29.126Z,79.63
2018-02-24T04:46:29.112Z,82.09
2018-02-24T04:47:29.109Z,82.18
2018-02-24T04:48:29.088Z,81.61
2018-02-24T04:49:29.082Z,79.25
2018-02-24T04:50:29.065Z,78.12
2018-02-24T04:51:29.055Z,77.45
2018-02-24T04:52:29.030Z,80.85
2018-02-24T04:53:29.028Z,84.03
2018-02-24T04:54:28.765Z,84.07
2018-02-24T04:55:28.994Z,82.46
2018-02-24T04:56:28.971Z,80.29
2018-02-24T04:57:28.709Z,78.02
2018-02-24T04:58:28.688Z,78.4
2018-02-24T04:59:28.940Z,81.42
2018-02-24T05:00:28.911Z,80.85
2018-02-24T05:01:28.911Z,79.87
2018-02-24T05:02:28.890Z,79.44
2018-02-24T05:03:28.876Z,80.06
2018-02-24T05:04:28.874Z,79.63
2018-02-24T05:05:28.845Z,79.11
2018-02-24T05:06:28.577Z,78.64
2018-02-24T05:07:30.114Z,80.91
2018-02-24T05:08:28.745Z,81.95
2018-02-24T05:09:28.792Z,81.67
2018-02-24T05:10:28.773Z,82.14
2018-02-24T05:11:28.764Z,82.42
2018-02-24T05:12:28.489Z,81.1
2018-02-24T05:13:28.731Z,81.76
2018-02-24T05:14:28.720Z,81.29
2018-02-24T05:15:28.700Z,80.34
2018-02-24T05:16:28.432Z,80.25
2018-02-24T05:17:28.675Z,81.2
2018-02-24T05:18:28.660Z,81.76
2018-02-24T05:19:28.643Z,81.1
2018-02-24T05:20:28.631Z,81.85
2018-02-24T05:21:28.622Z,83.08
2018-02-24T05:22:28.607Z,83.17
2018-02-24T05:23:28.600Z,82.8
2018-02-24T05:24:28.344Z,81.67
2018-02-24T05:25:28.560Z,79.49
2018-02-24T05:26:28.553Z,79.97
2018-02-24T05:27:28.292Z,81.38
2018-02-24T05:28:28.549Z,82.51
2018-02-24T05:29:28.248Z,82.89
2018-02-24T05:30:28.488Z,82.04
2018-02-24T05:31:28.480Z,80.25
2018-02-24T05:32:28.458Z,79.97
2018-02-24T05:33:28.447Z,80.15
2018-02-24T05:34:28.183Z,81.29
2018-02-24T05:35:28.419Z,84.31
2018-02-24T05:36:28.402Z,85.25
2018-02-24T05:37:28.385Z,83.27
2018-02-24T05:38:28.380Z,80.72
2018-02-24T05:39:28.360Z,80.53
2018-02-24T05:40:28.348Z,79.68
2018-02-24T05:41:28.333Z,80.25
2018-02-24T05:42:28.064Z,80.44
2018-02-24T05:43:28.301Z,81.48
2018-02-24T05:44:28.294Z,80.72
2018-02-24T05:45:28.279Z,80.82
2018-02-24T05:46:28.261Z,80.63
2018-02-24T05:47:28.251Z,81.38
2018-02-24T05:48:27.977Z,81.38
2018-02-24T05:49:27.964Z,80.91
2018-02-24T05:50:28.202Z,81.38
2018-02-24T05:51:27.933Z,82.42
2018-02-24T05:52:28.176Z,83.84
2018-02-24T05:53:28.160Z,83.08
2018-02-24T05:54:27.896Z,82.61
2018-02-24T05:55:28.136Z,83.46
2018-02-24T05:56:28.121Z,82.8
2018-02-24T05:57:28.101Z,82.42
2018-02-24T05:58:27.838Z,81.38
2018-02-24T05:59:28.070Z,81.2
2018-02-24T06:00:28.062Z,80.91
2018-02-24T06:01:28.053Z,81.48
2018-02-24T06:02:27.785Z,82.7
2018-02-24T06:03:28.015Z,83.55
2018-02-24T06:04:28.006Z,84.31
2018-02-24T06:05:27.985Z,84.41
2018-02-24T06:06:27.972Z,83.36
2018-02-24T06:07:27.963Z,81.29
2018-02-24T06:08:28.240Z,83.08
2018-02-24T06:09:27.941Z,83.27
2018-02-24T06:10:27.913Z,81.85
2018-02-24T06:11:27.904Z,81.38
2018-02-24T06:12:27.905Z,82.23
2018-02-24T06:13:27.875Z,82.14
2018-02-24T06:14:27.862Z,82.61
2018-02-24T06:15:27.848Z,82.42
2018-02-24T06:16:27.822Z,82.89
2018-02-24T06:17:27.555Z,81.95
2018-02-24T06:18:27.801Z,81.38
2018-02-24T06:19:27.780Z,81.38
2018-02-24T06:20:27.768Z,81.29
2018-02-24T06:21:27.757Z,81.85
2018-02-24T06:22:27.491Z,82.23
2018-02-24T06:23:29.578Z,84.12
2018-02-24T06:24:27.707Z,83.93
2018-02-24T06:25:27.693Z,83.27
2018-02-24T06:26:27.438Z,82.04
2018-02-24T06:27:27.663Z,82.14
2018-02-24T06:28:27.409Z,82.51
2018-02-24T06:29:27.397Z,81.95
2018-02-24T06:30:27.619Z,81.67
2018-02-24T06:31:27.609Z,81.48
2018-02-24T06:32:27.593Z,82.89
2018-02-24T06:33:27.582Z,84.97
2018-02-24T06:34:27.562Z,83.84
2018-02-24T06:35:27.553Z,82.99
2018-02-24T06:36:27.542Z,81.57
2018-02-24T06:37:27.276Z,80.91
2018-02-24T06:38:27.503Z,81.1
2018-02-24T06:39:27.489Z,81.95
2018-02-24T06:40:27.476Z,83.17
2018-02-24T06:41:27.464Z,84.12
2018-02-24T06:42:27.459Z,84.5
2018-02-24T06:43:27.441Z,83.08
2018-02-24T06:44:27.432Z,82.32
2018-02-24T06:45:27.151Z,81.29
2018-02-24T06:46:27.399Z,80.63
2018-02-24T06:47:27.387Z,80.72
2018-02-24T06:48:27.374Z,80.72
2018-02-24T06:49:27.376Z,80.91
2018-02-24T06:50:27.380Z,80.82
2018-02-24T06:51:27.062Z,80.91
2018-02-24T06:52:27.306Z,81.57
2018-02-24T06:53:27.294Z,81.38
2018-02-24T06:54:27.021Z,81.1
2018-02-24T06:55:27.005Z,81.01
2018-02-24T06:56:27.248Z,81.48
2018-02-24T06:57:27.234Z,81.1
2018-02-24T06:58:26.964Z,81.76
2018-02-24T06:59:27.210Z,81.29
2018-02-24T07:00:27.184Z,81.29
2018-02-24T07:01:27.173Z,81.29
2018-02-24T07:02:27.158Z,81.76
2018-02-24T07:03:27.151Z,81.29
2018-02-24T07:04:26.877Z,80.82
2018-02-24T07:05:26.860Z,80.44
2018-02-24T07:06:27.108Z,80.91
2018-02-24T07:07:27.132Z,80.91
2018-02-24T07:08:27.068Z,81.29
2018-02-24T07:09:27.055Z,81.1
2018-02-24T07:10:26.793Z,80.82
2018-02-24T07:11:26.778Z,80.34
2018-02-24T07:12:26.759Z,80.44
2018-02-24T07:13:27.004Z,80.44
2018-02-24T07:14:26.748Z,80.25
2018-02-24T07:15:26.974Z,80.82
2018-02-24T07:16:26.957Z,80.63
2018-02-24T07:17:26.949Z,81.38
2018-02-24T07:18:26.986Z,80.82
2018-02-24T07:19:26.953Z,80.25
2018-02-24T07:20:26.975Z,79.87
2018-02-24T07:21:26.885Z,80.44
2018-02-24T07:22:26.872Z,80.25
2018-02-24T07:23:26.856Z,81.1
2018-02-24T07:24:27.966Z,79.87
2018-02-24T07:25:26.831Z,79.11
2018-02-24T07:26:26.824Z,79.97
2018-02-24T07:27:26.558Z,81.48
2018-02-24T07:28:26.790Z,83.08
2018-02-24T07:29:26.796Z,81.38
2018-02-24T07:30:26.507Z,79.59
2018-02-24T07:31:26.763Z,80.72
2018-02-24T07:32:26.743Z,80.66
2018-02-24T07:33:26.739Z,81.52
2018-02-24T07:34:26.713Z,80.19
2018-02-24T07:35:26.449Z,75.98
2018-02-24T07:36:26.427Z,72.58
2018-02-24T07:37:26.415Z,71.64
2018-02-24T07:38:26.401Z,70.16
2018-02-24T07:39:26.650Z,68.36
2018-02-24T07:40:26.628Z,69.12
2018-02-24T07:41:26.627Z,66.75
2018-02-24T07:42:26.607Z,65.56
2018-02-24T07:43:26.343Z,69.15
2018-02-24T07:44:26.328Z,66.88
2018-02-24T07:45:26.568Z,65.09
2018-02-24T07:46:26.560Z,62.47
2018-02-24T07:47:26.296Z,60.38
2018-02-24T07:48:26.542Z,62.66
2018-02-24T07:49:26.582Z,65.02
2018-02-24T07:50:26.586Z,62.75
2018-02-24T07:51:26.277Z,62.18
2018-02-24T07:52:26.503Z,62.37
2018-02-24T07:53:26.244Z,62.37
2018-02-24T07:54:26.485Z,61.43
2018-02-24T07:55:26.221Z,61.05
2018-02-24T07:56:26.470Z,59.56
2018-02-24T07:57:26.457Z,58.97
2018-02-24T07:58:26.458Z,58.78
2018-02-24T07:59:26.236Z,59.81
2018-02-24T08:00:26.445Z,60.29
2018-02-24T08:01:26.427Z,60.86
2018-02-24T08:02:26.426Z,60.83
2018-02-24T08:03:26.403Z,61.3
2018-02-24T08:04:26.421Z,62.91
2018-02-24T08:05:26.387Z,61.05
2018-02-24T08:06:26.381Z,60.1
2018-02-24T08:07:26.369Z,59.25
2018-02-24T08:08:26.359Z,59.72
2018-02-24T08:09:26.351Z,60.86
2018-02-24T08:10:26.348Z,60.58
2018-02-24T08:11:26.084Z,60.86
2018-02-24T08:12:26.329Z,61.05
2018-02-24T08:13:26.317Z,60.48
2018-02-24T08:14:26.310Z,59.81
2018-02-24T08:15:26.313Z,59.19
2018-02-24T08:16:26.296Z,58.43
2018-02-24T08:17:26.289Z,57.42
2018-02-24T08:18:26.029Z,55.99
2018-02-24T08:19:26.277Z,54
2018-02-24T08:20:26.260Z,54
2018-02-24T08:21:26.005Z,55.24
2018-02-24T08:22:26.243Z,54.38
2018-02-24T08:23:26.244Z,55.05
2018-02-24T08:24:26.227Z,54.93
2018-02-24T08:25:26.222Z,59
2018-02-24T08:26:26.218Z,60.22
2018-02-24T08:27:26.204Z,60.1
2018-02-24T08:28:26.200Z,59.84
2018-02-24T08:29:26.189Z,59.94
2018-02-24T08:30:26.188Z,57.64
2018-02-24T08:31:26.176Z,57.35
2018-02-24T08:32:25.911Z,56.51
2018-02-24T08:33:26.155Z,59.06
2018-02-24T08:34:26.153Z,60.86
2018-02-24T08:35:25.889Z,61.4
2018-02-24T08:36:26.138Z,62.06
2018-02-24T08:37:26.125Z,63.1
2018-02-24T08:38:25.858Z,63.64
2018-02-24T08:39:25.850Z,64.58
2018-02-24T08:40:29.501Z,64.77
2018-02-24T08:41:26.089Z,67.22
2018-02-24T08:42:25.826Z,68.08
2018-02-24T08:43:26.074Z,69.21
2018-02-24T08:44:26.056Z,69.21
2018-02-24T08:45:26.056Z,67.32
2018-02-24T08:46:26.040Z,67.79
2018-02-24T08:47:26.021Z,67.32
2018-02-24T08:48:26.545Z,67.38
2018-02-24T08:49:26.005Z,66.35
2018-02-24T08:50:25.989Z,65.78
2018-02-24T08:51:25.981Z,66.53
2018-02-24T08:52:25.968Z,66.82
2018-02-24T08:53:25.963Z,67
2018-02-24T08:54:25.691Z,66.91
2018-02-24T08:55:25.935Z,67.19
2018-02-24T08:56:25.922Z,66.35
2018-02-24T08:57:25.655Z,66.82
2018-02-24T08:58:25.896Z,65.97
2018-02-24T08:59:25.906Z,65.87
2018-02-24T09:00:25.877Z,66.53
2018-02-24T09:01:26.417Z,66.91
2018-02-24T09:02:25.851Z,68.23
2018-02-24T09:03:25.846Z,68.71
2018-02-24T09:04:25.574Z,67
2018-02-24T09:05:25.820Z,65.87
2018-02-24T09:06:25.807Z,68.42
2018-02-24T09:07:25.791Z,70.31
2018-02-24T09:08:25.829Z,67.47
2018-02-24T09:09:25.516Z,65.68
2018-02-24T09:10:25.760Z,64.92
2018-02-24T09:11:25.492Z,65.3
2018-02-24T09:12:25.731Z,64.64
2018-02-24T09:13:25.468Z,64.54
2018-02-24T09:14:25.713Z,65.59
2018-02-24T09:15:25.698Z,65.59
2018-02-24T09:16:25.436Z,64.92
2018-02-24T09:17:25.694Z,65.02
2018-02-24T09:18:25.697Z,64.54
2018-02-24T09:19:25.398Z,64.73
2018-02-24T09:20:25.639Z,63.82
2018-02-24T09:21:25.624Z,63.45
2018-02-24T09:22:25.625Z,63.92
2018-02-24T09:23:25.610Z,63.26
2018-02-24T09:24:25.607Z,64.01
2018-02-24T09:25:25.653Z,64.86
2018-02-24T09:26:25.322Z,63.73
2018-02-24T09:27:25.300Z,61.83
2018-02-24T09:28:25.543Z,61.18
2018-02-24T09:29:25.546Z,60.61
2018-02-24T09:30:25.269Z,59.85
2018-02-24T09:31:25.256Z,58.94
2018-02-24T09:32:25.248Z,58.94
2018-02-24T09:33:25.237Z,59.69
2018-02-24T09:34:25.483Z,59.41
2018-02-24T09:35:25.462Z,58.28
2018-02-24T09:36:25.564Z,57.71
2018-02-24T09:37:25.439Z,57.8
2018-02-24T09:38:25.439Z,58.28
2018-02-24T09:39:25.422Z,57.14
2018-02-24T09:40:25.412Z,56.76
2018-02-24T09:41:25.147Z,59.03
2018-02-24T09:42:26.389Z,59.22
2018-02-24T09:43:25.371Z,57.42
2018-02-24T09:44:25.117Z,56.1
2018-02-24T09:45:25.405Z,54.96
2018-02-24T09:46:25.347Z,55.44
2018-02-24T09:47:25.332Z,55.53
2018-02-24T09:48:25.315Z,56.1
2018-02-24T09:49:25.058Z,56.85
2018-02-24T09:50:25.294Z,59.22
2018-02-24T09:51:25.289Z,58.47
2018-02-24T09:52:25.017Z,57.23
2018-02-24T09:53:25.265Z,58.56
2018-02-24T09:54:24.998Z,58.65
2018-02-24T09:55:24.985Z,58.65
2018-02-24T09:56:25.239Z,57.04
2018-02-24T09:57:25.216Z,55.06
2018-02-24T09:58:25.207Z,53.74
2018-02-24T09:59:25.196Z,53.17
2018-02-24T10:00:25.187Z,53.64
2018-02-24T10:01:25.172Z,53.36
2018-02-24T10:02:25.163Z,53.07
2018-02-24T10:03:25.166Z,52.41
2018-02-24T10:04:25.157Z,53.55
2018-02-24T10:05:24.879Z,52.31
2018-02-24T10:06:25.119Z,52.79
2018-02-24T10:07:25.110Z,54.68
2018-02-24T10:08:25.099Z,57.23
2018-02-24T10:09:24.834Z,55.82
2018-02-24T10:10:25.075Z,53.92
2018-02-24T10:11:24.815Z,52.81
2018-02-24T10:12:27.724Z,53.85
2018-02-24T10:13:25.045Z,55.37
2018-02-24T10:14:25.030Z,57.07
2018-02-24T10:15:25.025Z,54.99
2018-02-24T10:16:25.010Z,51.77
2018-02-24T10:17:24.748Z,49.5
2018-02-24T10:18:24.989Z,49.31
2018-02-24T10:19:24.979Z,50.54
2018-02-24T10:20:24.967Z,51.39
2018-02-24T10:21:24.971Z,53.19
2018-02-24T10:22:24.693Z,52.53
2018-02-24T10:23:24.682Z,49.98
2018-02-24T10:24:24.671Z,49.41
2018-02-24T10:25:24.913Z,49.12
2018-02-24T10:56:08.034Z,48.08
2018-02-24T10:57:07.743Z,46
2018-02-24T10:58:07.978Z,45.62
2018-02-24T10:59:07.962Z,46.12
2018-02-24T11:00:08.086Z,46.21
2018-02-24T11:01:07.948Z,45.64
2018-02-24T11:02:07.919Z,48.2
2018-02-24T11:03:07.667Z,48.49
2018-02-24T11:04:07.904Z,46.21
2018-02-24T11:05:07.967Z,47.44
2018-02-24T11:06:07.976Z,44.98
2018-02-24T11:07:07.609Z,43.37
2018-02-24T11:08:07.843Z,43.37
2018-02-24T11:09:07.590Z,44.32
2018-02-24T11:10:07.825Z,42.99
2018-02-24T11:11:07.863Z,44.6
2018-02-24T11:12:07.805Z,45.83
2018-02-24T11:13:07.796Z,46.02
2018-02-24T11:14:07.786Z,44.03
2018-02-24T11:15:07.834Z,42.9
2018-02-24T11:16:07.916Z,44.03
2018-02-24T11:17:07.747Z,45.24
2018-02-24T11:18:07.744Z,44.86
2018-02-24T11:19:07.726Z,44.41
2018-02-24T11:20:07.718Z,44.22
2018-02-24T11:21:07.775Z,45.26
2018-02-24T11:22:07.695Z,45.17
2018-02-24T11:23:07.684Z,44.98
2018-02-24T11:24:07.675Z,45.55
2018-02-24T11:25:07.667Z,44.13
2018-02-24T11:26:07.856Z,42.9
2018-02-24T11:27:07.655Z,45.62
2018-02-24T11:28:07.637Z,44.22
2018-02-24T11:29:07.702Z,44.1
2018-02-24T11:30:07.632Z,44.41
2018-02-24T11:31:07.909Z,44.03
2018-02-24T11:32:07.596Z,42.9
2018-02-24T11:33:07.602Z,43.37
2018-02-24T11:34:07.582Z,44.32
2018-02-24T11:35:07.568Z,44.51
2018-02-24T11:36:07.753Z,46.02
2018-02-24T11:37:07.545Z,45.55
2018-02-24T11:38:07.540Z,46.97
2018-02-24T11:39:07.521Z,45.55
2018-02-24T11:40:07.515Z,44.22
2018-02-24T11:41:07.500Z,44.6
2018-02-24T11:42:07.495Z,44.91
2018-02-24T11:43:07.482Z,45.76
2018-02-24T11:44:07.476Z,45.76
2018-02-24T11:45:07.458Z,44.81
2018-02-24T11:46:07.664Z,45.67
2018-02-24T11:47:07.436Z,45.86
2018-02-24T11:48:07.428Z,44.34
2018-02-24T11:49:07.168Z,42.61
2018-02-24T11:50:07.465Z,43.37
2018-02-24T11:51:07.799Z,44.34
2018-02-24T11:52:07.142Z,44.43
2018-02-24T11:53:07.129Z,43.68
2018-02-24T11:54:07.377Z,44.91
2018-02-24T11:55:07.363Z,43.49
2018-02-24T11:56:07.622Z,44.15
2018-02-24T11:57:07.336Z,42.82
2018-02-24T11:58:07.080Z,42.82
2018-02-24T11:59:07.317Z,43.77
2018-02-24T12:00:07.314Z,45.19
2018-02-24T12:01:07.648Z,44.06
2018-02-24T12:02:07.294Z,42.44
2018-02-24T12:03:07.282Z,42.82
2018-02-24T12:04:07.269Z,43.11
2018-02-24T12:05:07.256Z,41.12
2018-02-24T12:06:07.395Z,40.74
2018-02-24T12:07:07.241Z,40.55
2018-02-24T12:08:07.230Z,40.17
2018-02-24T12:09:07.231Z,40.93
2018-02-24T12:10:07.221Z,43.01
2018-02-24T12:11:09.654Z,42.82
2018-02-24T12:12:07.193Z,42.82
2018-02-24T12:13:07.185Z,41.97
2018-02-24T12:14:07.175Z,42.25
2018-02-24T12:15:07.172Z,42.25
2018-02-24T12:16:07.154Z,44.24
2018-02-24T12:17:07.147Z,44.43
2018-02-24T12:18:06.889Z,46.23
2018-02-24T12:19:07.135Z,43.88
2018-02-24T12:20:07.115Z,43.04
2018-02-24T12:21:07.125Z,42.08
2018-02-24T12:22:07.095Z,42.08
2018-02-24T12:23:07.087Z,40.66
2018-02-24T12:24:06.823Z,39.9
2018-02-24T12:25:07.075Z,39.62
2018-02-24T12:26:07.062Z,40.28
2018-02-24T12:27:07.058Z,41.61
2018-02-24T12:28:07.057Z,42.08
2018-02-24T12:29:07.037Z,42.27
2018-02-24T12:30:07.028Z,42.85
2018-02-24T12:31:07.017Z,43.04
2018-02-24T12:32:07.006Z,41.33
2018-02-24T12:33:07.041Z,39.05
2018-02-24T12:34:06.732Z,39.05
2018-02-24T12:35:06.776Z,38.67
2018-02-24T12:36:06.993Z,38.86
2018-02-24T12:37:06.964Z,40.09
2018-02-24T12:38:06.698Z,38.67
2018-02-24T12:39:06.706Z,40
2018-02-24T12:40:06.981Z,40.28
2018-02-24T12:41:06.941Z,38.29
2018-02-24T12:42:06.920Z,40.95
2018-02-24T12:43:06.909Z,41.14
2018-02-24T12:44:06.898Z,41.8
2018-02-24T12:45:06.887Z,38.58
2018-02-24T12:46:06.887Z,39.05
2018-02-24T12:47:06.868Z,40.66
2018-02-24T12:48:06.862Z,40.38
2018-02-24T12:49:06.851Z,40
2018-02-24T12:50:06.871Z,38.58
2018-02-24T12:51:06.639Z,38.1
2018-02-24T12:52:06.659Z,40.09
2018-02-24T12:53:06.577Z,38.29
2018-02-24T12:54:06.809Z,38.58
2018-02-24T12:55:06.822Z,38.29
2018-02-24T12:56:06.802Z,38.1
2018-02-24T12:57:06.778Z,38.39
2018-02-24T12:58:06.780Z,40.19
2018-02-24T12:59:06.769Z,39.05
2018-02-24T13:00:06.759Z,38.48
2018-02-24T13:01:06.743Z,39.9
2018-02-24T13:02:06.734Z,40.28
2018-02-24T13:03:06.729Z,40.28
2018-02-24T13:04:06.461Z,40.38
2018-02-24T13:05:06.454Z,38.77
2018-02-24T13:06:06.741Z,38.48
2018-02-24T13:07:06.439Z,39.15
2018-02-24T13:08:06.783Z,39.15
2018-02-24T13:09:06.700Z,38.01
2018-02-24T13:10:06.426Z,37.25
2018-02-24T13:11:06.442Z,36.49
2018-02-24T13:12:06.437Z,39.81
2018-02-24T13:13:06.654Z,39.15
2018-02-24T13:14:06.625Z,38.67
2018-02-24T13:15:06.447Z,39.62
2018-02-24T13:16:06.373Z,40.19
2018-02-24T13:17:06.608Z,40.19
2018-02-24T13:18:06.588Z,41.14
2018-02-24T13:19:06.577Z,40.85
2018-02-24T13:20:06.587Z,40.76
2018-02-24T13:21:06.305Z,39.9
2018-02-24T13:22:06.556Z,40.19
2018-02-24T13:23:06.545Z,37.92
2018-02-24T13:24:06.280Z,39.05
2018-02-24T13:25:06.522Z,40.85
2018-02-24T13:26:06.258Z,40